Time;durP1;ratioP1;P1;durP2;ratioP2;P2;SDS_P1;SDS_P2;PMS_P1;PMS_P2;Temp;Humidity;BMP_temperature;BMP_pressure;BME280_temperature;BME280_humidity;BME280_pressure;Samples;Min_cycle;Max_cycle;Signal;HPM_P1;HPM_P2
2022/03/12 00:01:57;;;;;;;39.20;12.88;;;;;;;;;;4884930;29;20036;-88
2022/03/12 00:04:23;;;;;;;37.63;14.48;;;;;;;;;;4902113;29;20501;-88
2022/03/12 00:06:49;;;;;;;37.70;13.55;;;;;;;;;;4884101;29;20103;-87
2022/03/12 00:09:15;;;;;;;48.70;16.23;;;;;;;;;;4884145;29;20052;-87
2022/03/12 00:11:51;;;;;;;51.78;20.10;;;;;;;;;;4902745;29;20106;-87
2022/03/12 00:14:22;;;;;;;56.67;17.52;;;;;;;;;;4884360;29;20040;-88
2022/03/12 00:16:50;;;;;;;53.78;19.48;;;;;;;;;;4883944;29;20414;-89
2022/03/12 00:19:20;;;;;;;51.15;17.60;;;;;;;;;;4901057;29;20036;-87
2022/03/12 00:21:47;;;;;;;50.25;17.65;;;;;;;;;;4886126;29;20032;-87
2022/03/12 00:24:17;;;;;;;49.53;17.63;;;;;;;;;;4900558;29;20035;-88
2022/03/12 00:26:44;;;;;;;45.20;14.68;;;;;;;;;;4885096;29;20489;-89
2022/03/12 00:29:22;;;;;;;31.58;10.90;;;;;;;;;;4885313;29;20037;-87
2022/03/12 00:31:54;;;;;;;26.67;8.80;;;;;;;;;;4883746;29;20060;-87
2022/03/12 00:34:20;;;;;;;19.50;7.50;;;;;;;;;;4884689;29;20092;-86
2022/03/12 00:36:48;;;;;;;21.50;7.68;;;;;;;;;;4883319;29;20058;-88
2022/03/12 00:39:15;;;;;;;22.35;7.88;;;;;;;;;;4886028;29;20028;-86
2022/03/12 00:41:44;;;;;;;16.27;6.90;;;;;;;;;;4900131;29;20035;-87
2022/03/12 00:44:16;;;;;;;22.80;8.68;;;;;;;;;;4883999;29;20037;-87
2022/03/12 00:46:42;;;;;;;17.98;7.35;;;;;;;;;;4883197;29;20044;-87
2022/03/12 00:49:21;;;;;;;22.02;8.38;;;;;;;;;;4883837;29;20032;-90
2022/03/12 00:51:56;;;;;;;25.35;8.93;;;;;;;;;;4883178;29;20029;-87
2022/03/12 00:54:23;;;;;;;18.42;6.97;;;;;;;;;;4883146;29;20037;-87
2022/03/12 00:56:49;;;;;;;22.92;7.30;;;;;;;;;;4884191;29;20028;-86
2022/03/12 00:59:15;;;;;;;35.00;11.65;;;;;;;;;;4883548;29;20029;-88
2022/03/12 01:01:41;;;;;;;49.38;16.63;;;;;;;;;;4883315;29;20502;-87
2022/03/12 01:04:07;;;;;;;82.03;22.55;;;;;;;;;;4900506;29;20039;-87
2022/03/12 01:06:37;;;;;;;53.05;16.30;;;;;;;;;;4883025;29;20048;-87
2022/03/12 01:09:03;;;;;;;36.00;13.60;;;;;;;;;;4883395;29;20511;-86
2022/03/12 01:11:30;;;;;;;42.25;15.55;;;;;;;;;;4883140;29;20064;-88
2022/03/12 01:13:57;;;;;;;44.65;14.07;;;;;;;;;;4883867;29;20043;-88
2022/03/12 01:16:23;;;;;;;36.83;13.60;;;;;;;;;;4883719;29;20522;-87
2022/03/12 01:18:49;;;;;;;43.00;13.57;;;;;;;;;;4883496;29;20064;-87
2022/03/12 01:21:17;;;;;;;46.35;13.98;;;;;;;;;;4901170;29;20029;-89
2022/03/12 01:23:44;;;;;;;42.15;14.25;;;;;;;;;;4885311;29;20501;-87
2022/03/12 01:26:11;;;;;;;47.08;15.02;;;;;;;;;;4882714;29;20025;-87
2022/03/12 01:28:38;;;;;;;48.45;16.63;;;;;;;;;;4883917;29;20041;-89
2022/03/12 01:31:07;;;;;;;44.08;15.55;;;;;;;;;;4883335;29;20037;-88
2022/03/12 01:33:33;;;;;;;53.67;17.92;;;;;;;;;;4900356;29;20083;-89
2022/03/12 01:35:59;;;;;;;39.08;15.35;;;;;;;;;;4880092;29;20057;-86
2022/03/12 01:38:33;;;;;;;53.38;17.65;;;;;;;;;;4882284;29;20025;-88
2022/03/12 01:41:03;;;;;;;52.05;17.80;;;;;;;;;;4879744;29;20033;-87
2022/03/12 01:43:33;;;;;;;51.22;17.17;;;;;;;;;;4879856;29;20042;-86
2022/03/12 01:46:01;;;;;;;49.55;17.20;;;;;;;;;;4879371;29;20498;-86
2022/03/12 01:48:30;;;;;;;53.70;16.20;;;;;;;;;;4881118;29;20037;-88
2022/03/12 01:50:57;;;;;;;36.30;13.93;;;;;;;;;;4879753;29;20037;-85
2022/03/12 01:53:28;;;;;;;43.20;14.52;;;;;;;;;;4880109;29;20072;-89
2022/03/12 01:55:55;;;;;;;37.13;11.60;;;;;;;;;;4880732;29;20029;-87
2022/03/12 01:58:24;;;;;;;36.03;12.98;;;;;;;;;;4880261;29;20482;-88
2022/03/12 02:00:51;;;;;;;31.73;11.52;;;;;;;;;;4880341;29;20029;-88
2022/03/12 02:03:26;;;;;;;28.48;10.98;;;;;;;;;;4882656;29;20029;-88
2022/03/12 02:05:53;;;;;;;34.50;12.70;;;;;;;;;;4885502;29;20029;-88
2022/03/12 02:08:19;;;;;;;31.52;11.45;;;;;;;;;;4883719;29;20475;-85
2022/03/12 02:10:47;;;;;;;38.58;11.73;;;;;;;;;;4911426;23;20127;-86
2022/03/12 02:13:16;;;;;;;33.85;11.63;;;;;;;;;;4886464;29;20581;-88
2022/03/12 02:15:43;;;;;;;24.92;10.30;;;;;;;;;;4887626;29;20035;-87
2022/03/12 02:18:10;;;;;;;32.35;11.05;;;;;;;;;;4886149;29;20096;-88
2022/03/12 02:20:38;;;;;;;26.45;10.48;;;;;;;;;;4887803;29;20487;-87
2022/03/12 02:23:04;;;;;;;23.88;10.07;;;;;;;;;;4901495;29;20020;-87
2022/03/12 02:25:31;;;;;;;27.77;8.88;;;;;;;;;;4895018;29;20044;-87
2022/03/12 02:27:59;;;;;;;28.33;10.38;;;;;;;;;;4887754;29;20068;-88
2022/03/12 02:30:42;;;;;;;32.25;9.35;;;;;;;;;;4886888;29;20036;-88
2022/03/12 02:33:10;;;;;;;22.50;7.53;;;;;;;;;;4886215;29;20028;-87
2022/03/12 02:35:36;;;;;;;20.42;8.75;;;;;;;;;;4886130;29;20032;-87
2022/03/12 02:38:07;;;;;;;24.33;8.15;;;;;;;;;;4885746;29;20068;-88
2022/03/12 02:40:34;;;;;;;23.23;7.97;;;;;;;;;;4885578;29;20067;-88
2022/03/12 02:43:00;;;;;;;21.60;7.72;;;;;;;;;;4885518;29;20035;-88
2022/03/12 02:45:29;;;;;;;21.73;7.85;;;;;;;;;;4886786;29;20131;-89
2022/03/12 02:47:58;;;;;;;20.35;8.05;;;;;;;;;;4885386;29;20056;-89
2022/03/12 02:50:25;;;;;;;27.33;8.95;;;;;;;;;;4903319;29;20033;-86
2022/03/12 02:52:51;;;;;;;20.83;8.27;;;;;;;;;;4887487;29;20037;-86
2022/03/12 02:55:18;;;;;;;21.27;7.88;;;;;;;;;;4902326;29;20348;-85
2022/03/12 02:57:46;;;;;;;23.63;9.43;;;;;;;;;;4886328;29;20115;-86
2022/03/12 03:00:14;;;;;;;21.58;8.85;;;;;;;;;;4885006;29;20490;-86
2022/03/12 03:02:41;;;;;;;17.55;7.07;;;;;;;;;;4886117;29;20033;-87
2022/03/12 03:08:00;;;;;;;27.20;7.82;;;;;;;;;;4902138;29;20075;-88
2022/03/12 03:10:47;;;;;;;21.08;7.90;;;;;;;;;;4884764;29;20060;-87
2022/03/12 03:13:30;;;;;;;22.00;7.57;;;;;;;;;;4885246;29;20025;-87
2022/03/12 03:16:01;;;;;;;22.17;7.63;;;;;;;;;;4884544;29;20546;-87
2022/03/12 03:18:30;;;;;;;24.85;8.68;;;;;;;;;;4886208;29;20040;-87
2022/03/12 03:20:56;;;;;;;20.45;7.68;;;;;;;;;;4884914;29;20036;-88
2022/03/12 03:23:25;;;;;;;16.25;6.85;;;;;;;;;;4885712;29;20029;-89
2022/03/12 03:25:51;;;;;;;16.48;7.65;;;;;;;;;;4884519;29;20070;-88
2022/03/12 03:28:18;;;;;;;22.35;8.63;;;;;;;;;;4884518;29;20509;-89
2022/03/12 03:30:45;;;;;;;24.00;8.95;;;;;;;;;;4885656;29;20032;-90
2022/03/12 03:33:17;;;;;;;16.90;7.70;;;;;;;;;;4884457;29;20032;-88
2022/03/12 03:35:43;;;;;;;23.27;8.02;;;;;;;;;;4885801;29;20036;-89
2022/03/12 03:38:11;;;;;;;19.17;7.45;;;;;;;;;;4885228;29;20120;-88
2022/03/12 03:40:38;;;;;;;23.33;8.30;;;;;;;;;;4884426;29;20036;-88
2022/03/12 03:43:09;;;;;;;18.75;7.53;;;;;;;;;;4884772;29;20028;-87
2022/03/12 03:45:49;;;;;;;18.95;6.03;;;;;;;;;;4884450;29;20041;-89
2022/03/12 03:48:17;;;;;;;25.40;7.15;;;;;;;;;;4886381;29;20045;-90
2022/03/12 03:50:44;;;;;;;18.25;7.55;;;;;;;;;;4884549;29;20028;-88
2022/03/12 03:53:12;;;;;;;21.73;7.30;;;;;;;;;;4901073;29;20060;-88
2022/03/12 03:55:38;;;;;;;21.15;7.95;;;;;;;;;;4884897;29;20119;-88
2022/03/12 03:58:05;;;;;;;24.85;8.63;;;;;;;;;;4885499;29;20029;-88
2022/03/12 04:00:33;;;;;;;19.92;8.48;;;;;;;;;;4884357;29;20032;-88
2022/03/12 04:03:02;;;;;;;21.55;7.85;;;;;;;;;;4883991;29;20061;-88
2022/03/12 04:05:29;;;;;;;21.10;7.18;;;;;;;;;;4884182;29;20119;-88
2022/03/12 04:07:55;;;;;;;22.63;8.88;;;;;;;;;;4884272;29;20053;-88
2022/03/12 04:10:21;;;;;;;19.13;8.07;;;;;;;;;;4881488;29;20469;-88
2022/03/12 04:12:48;;;;;;;23.67;8.25;;;;;;;;;;4882643;29;20036;-89
2022/03/12 04:15:15;;;;;;;18.80;8.00;;;;;;;;;;4881371;29;20036;-88
2022/03/12 04:17:41;;;;;;;19.35;8.25;;;;;;;;;;4882170;29;20036;-89
2022/03/12 04:20:08;;;;;;;21.20;8.50;;;;;;;;;;4881367;29;20033;-86
2022/03/12 04:22:38;;;;;;;20.00;8.50;;;;;;;;;;4882345;29;20037;-89
2022/03/12 04:25:05;;;;;;;28.45;10.57;;;;;;;;;;4882560;29;20604;-90
2022/03/12 04:27:34;;;;;;;20.67;8.35;;;;;;;;;;4879780;29;20558;-90
2022/03/12 04:30:00;;;;;;;25.42;8.02;;;;;;;;;;4881083;29;20033;-89
2022/03/12 04:32:29;;;;;;;20.83;8.23;;;;;;;;;;4883630;29;20029;-90
2022/03/12 04:34:55;;;;;;;21.08;7.20;;;;;;;;;;4882219;29;20509;-89
2022/03/12 04:37:22;;;;;;;20.13;7.00;;;;;;;;;;4881382;29;20060;-88
2022/03/12 04:39:49;;;;;;;18.17;7.65;;;;;;;;;;4880757;29;20029;-88
2022/03/12 04:42:21;;;;;;;25.27;8.38;;;;;;;;;;4880390;29;20041;-90
2022/03/12 04:44:48;;;;;;;16.55;6.80;;;;;;;;;;4880778;29;20040;-87
2022/03/12 04:47:18;;;;;;;18.70;6.50;;;;;;;;;;4880552;29;20128;-90
2022/03/12 04:49:44;;;;;;;16.10;7.28;;;;;;;;;;4880243;29;20029;-88
2022/03/12 04:52:11;;;;;;;17.48;7.07;;;;;;;;;;4880159;29;20085;-88
2022/03/12 04:54:37;;;;;;;19.50;6.63;;;;;;;;;;4881085;29;20071;-88
2022/03/12 04:57:04;;;;;;;13.90;6.07;;;;;;;;;;4894926;29;20033;-86
2022/03/12 04:59:30;;;;;;;19.65;7.35;;;;;;;;;;4888383;29;20145;-86
2022/03/12 05:01:57;;;;;;;18.50;7.22;;;;;;;;;;4881733;29;20032;-88
2022/03/12 05:04:24;;;;;;;27.73;7.70;;;;;;;;;;4880637;29;20088;-89
2022/03/12 05:06:50;;;;;;;16.20;6.18;;;;;;;;;;4880376;29;20041;-90
2022/03/12 05:09:20;;;;;;;23.90;8.73;;;;;;;;;;4879909;29;20044;-88
2022/03/12 05:11:46;;;;;;;17.58;7.60;;;;;;;;;;4879626;29;20076;-88
2022/03/12 05:16:57;;;;;;;23.70;9.02;;;;;;;;;;4922765;23;20067;-86
2022/03/12 05:19:23;;;;;;;27.67;9.90;;;;;;;;;;4882101;29;20040;-87
2022/03/12 05:21:49;;;;;;;25.73;10.48;;;;;;;;;;4881911;29;20033;-86
2022/03/12 05:24:15;;;;;;;34.70;11.77;;;;;;;;;;4898995;29;20438;-87
2022/03/12 05:29:47;;;;;;;34.03;11.38;;;;;;;;;;4897714;29;20059;-87
2022/03/12 05:35:17;;;;;;;24.42;10.13;;;;;;;;;;4899302;29;20064;-87
2022/03/12 05:37:53;;;;;;;27.40;10.82;;;;;;;;;;4882227;29;20044;-86
2022/03/12 05:40:26;;;;;;;35.25;11.25;;;;;;;;;;4883624;29;20401;-90
2022/03/12 05:42:55;;;;;;;28.05;11.32;;;;;;;;;;4883417;29;20081;-88
2022/03/12 05:45:23;;;;;;;27.90;10.82;;;;;;;;;;4884038;29;20037;-87
2022/03/12 05:48:23;;;;;;;28.67;11.30;;;;;;;;;;4884907;29;20048;-87
2022/03/12 05:51:09;;;;;;;34.08;10.45;;;;;;;;;;4882414;29;20438;-87
2022/03/12 05:53:36;;;;;;;31.48;10.70;;;;;;;;;;4898663;29;20041;-87
2022/03/12 05:56:04;;;;;;;26.27;10.52;;;;;;;;;;4881611;29;20102;-86
2022/03/12 05:58:35;;;;;;;21.13;9.35;;;;;;;;;;4899595;29;20029;-87
2022/03/12 06:01:01;;;;;;;31.35;9.23;;;;;;;;;;4882455;29;20033;-89
2022/03/12 06:03:27;;;;;;;25.38;8.85;;;;;;;;;;4883318;29;20031;-90
2022/03/12 06:05:58;;;;;;;28.35;10.60;;;;;;;;;;4882591;29;20120;-86
2022/03/12 06:08:28;;;;;;;30.27;11.02;;;;;;;;;;4892674;29;20083;-89
2022/03/12 06:10:55;;;;;;;33.40;11.88;;;;;;;;;;4883241;29;20032;-85
2022/03/12 06:13:30;;;;;;;31.15;10.75;;;;;;;;;;4882833;29;20797;-89
2022/03/12 06:16:03;;;;;;;28.27;10.80;;;;;;;;;;4882162;29;20052;-89
2022/03/12 06:18:30;;;;;;;29.13;11.52;;;;;;;;;;4882242;29;20363;-88
2022/03/12 06:21:10;;;;;;;26.67;10.10;;;;;;;;;;5303797;23;20100;-89
2022/03/12 06:23:36;;;;;;;26.20;10.93;;;;;;;;;;4865304;29;20554;-88
2022/03/12 06:26:25;;;;;;;24.98;10.00;;;;;;;;;;4862963;29;20029;-88
2022/03/12 06:31:54;;;;;;;21.10;9.00;;;;;;;;;;4881033;29;20107;-88
2022/03/12 06:34:21;;;;;;;21.33;10.13;;;;;;;;;;4863287;29;20112;-86
2022/03/12 06:36:47;;;;;;;21.15;9.18;;;;;;;;;;4879615;29;20475;-91
2022/03/12 06:39:13;;;;;;;19.80;6.60;;;;;;;;;;4862748;29;20029;-87
2022/03/12 06:41:45;;;;;;;13.13;4.35;;;;;;;;;;4863210;29;20037;-86
2022/03/12 06:44:17;;;;;;;13.25;5.22;;;;;;;;;;4862619;29;20029;-88
2022/03/12 06:46:44;;;;;;;11.07;3.47;;;;;;;;;;4880200;29;20057;-89
2022/03/12 06:49:10;;;;;;;9.60;4.10;;;;;;;;;;4866556;29;20746;-91
2022/03/12 06:51:38;;;;;;;9.73;4.30;;;;;;;;;;4866532;29;20036;-89
2022/03/12 06:54:04;;;;;;;5.78;2.05;;;;;;;;;;4867091;29;20083;-88
2022/03/12 06:56:34;;;;;;;8.05;2.72;;;;;;;;;;4866608;29;20505;-93
2022/03/12 06:59:01;;;;;;;9.82;3.08;;;;;;;;;;4866166;29;20057;-90
2022/03/12 07:01:27;;;;;;;7.82;2.50;;;;;;;;;;4866189;29;20475;-87
2022/03/12 07:03:53;;;;;;;11.35;3.38;;;;;;;;;;4883023;29;20043;-87
2022/03/12 07:06:19;;;;;;;5.40;2.15;;;;;;;;;;4884386;29;20028;-87
2022/03/12 07:08:50;;;;;;;12.45;3.47;;;;;;;;;;4886273;29;20533;-93
2022/03/12 07:11:31;;;;;;;7.50;3.22;;;;;;;;;;5027437;23;20019;-93
2022/03/12 07:14:00;;;;;;;9.40;3.42;;;;;;;;;;4885716;29;20029;-90
2022/03/12 07:16:35;;;;;;;6.35;2.17;;;;;;;;;;4886565;29;20032;-92
2022/03/12 07:19:02;;;;;;;7.90;3.15;;;;;;;;;;4886668;29;20500;-86
2022/03/12 07:21:28;;;;;;;4.82;1.63;;;;;;;;;;4884545;29;20379;-91
2022/03/12 07:23:55;;;;;;;8.80;3.72;;;;;;;;;;4884866;29;20024;-88
2022/03/12 07:26:21;;;;;;;5.50;2.35;;;;;;;;;;4885354;29;20032;-90
2022/03/12 07:28:48;;;;;;;8.07;3.08;;;;;;;;;;4887059;29;20061;-92
2022/03/12 07:31:16;;;;;;;11.40;4.18;;;;;;;;;;4886400;29;20033;-92
2022/03/12 07:33:44;;;;;;;9.02;3.80;;;;;;;;;;4888917;29;20437;-91
2022/03/12 07:36:11;;;;;;;10.00;3.75;;;;;;;;;;4889654;29;20025;-92
2022/03/12 07:38:37;;;;;;;9.25;4.70;;;;;;;;;;4887351;29;20082;-90
2022/03/12 07:41:04;;;;;;;7.13;2.70;;;;;;;;;;4884879;29;20072;-91
2022/03/12 07:43:30;;;;;;;9.00;4.30;;;;;;;;;;4884377;29;20029;-91
2022/03/12 07:45:57;;;;;;;5.65;2.75;;;;;;;;;;4884436;29;20028;-90
2022/03/12 07:48:24;;;;;;;4.45;1.67;;;;;;;;;;4884925;29;20045;-90
2022/03/12 07:50:50;;;;;;;4.50;2.35;;;;;;;;;;4883947;29;20076;-88
2022/03/12 07:53:17;;;;;;;4.05;1.70;;;;;;;;;;4884287;29;20054;-87
2022/03/12 07:55:46;;;;;;;3.13;1.67;;;;;;;;;;4884043;29;20057;-93
2022/03/12 07:58:14;;;;;;;4.80;2.10;;;;;;;;;;4884970;29;20036;-89
2022/03/12 08:00:48;;;;;;;7.18;2.42;;;;;;;;;;4886229;29;20478;-89
2022/03/12 08:03:14;;;;;;;;;;;;;;;;;;4885723;29;20043;-89
2022/03/12 08:05:50;;;;;;;5.25;2.60;;;;;;;;;;4884707;29;19907;-95
2022/03/12 08:08:17;;;;;;;7.93;2.22;;;;;;;;;;4884878;29;20819;-92
2022/03/12 08:13:29;;;;;;;3.92;1.58;;;;;;;;;;4900553;29;20052;-91
2022/03/12 08:15:55;;;;;;;5.03;2.40;;;;;;;;;;4885464;29;20031;-91
2022/03/12 08:18:23;;;;;;;4.50;1.92;;;;;;;;;;4884575;29;20032;-91
2022/03/12 08:20:50;;;;;;;3.15;1.42;;;;;;;;;;4885101;29;20450;-88
2022/03/12 08:23:16;;;;;;;7.25;1.50;;;;;;;;;;4887065;29;20034;-87
2022/03/12 08:25:43;;;;;;;4.90;1.58;;;;;;;;;;4890046;29;20033;-90
2022/03/12 08:28:09;;;;;;;8.43;3.25;;;;;;;;;;4883939;29;20041;-88
2022/03/12 08:30:37;;;;;;;7.25;3.05;;;;;;;;;;4883900;29;20111;-89
2022/03/12 08:33:03;;;;;;;9.15;2.65;;;;;;;;;;4884236;29;20029;-92
2022/03/12 08:35:30;;;;;;;4.57;2.17;;;;;;;;;;4884752;29;20060;-91
2022/03/12 08:37:56;;;;;;;5.82;1.73;;;;;;;;;;4883363;29;20032;-87
2022/03/12 08:40:25;;;;;;;3.90;1.83;;;;;;;;;;4882966;29;20419;-88
2022/03/12 08:42:52;;;;;;;1.98;0.95;;;;;;;;;;4883250;29;20032;-90
2022/03/12 08:48:22;;;;;;;2.58;1.83;;;;;;;;;;4901593;29;20092;-90
2022/03/12 08:50:48;;;;;;;2.72;1.42;;;;;;;;;;4883308;29;20482;-88
2022/03/12 08:53:17;;;;;;;8.15;1.90;;;;;;;;;;4883137;29;20153;-89
2022/03/12 08:55:44;;;;;;;4.20;1.48;;;;;;;;;;4885653;29;20029;-91
2022/03/12 08:58:13;;;;;;;2.28;0.95;;;;;;;;;;4883285;29;20040;-87
2022/03/12 09:00:39;;;;;;;2.90;1.42;;;;;;;;;;4883766;29;20084;-85
2022/03/12 09:03:05;;;;;;;4.00;1.85;;;;;;;;;;4882985;29;20033;-90
2022/03/12 09:05:31;;;;;;;8.07;1.40;;;;;;;;;;4883113;29;20024;-87
2022/03/12 09:07:58;;;;;;;4.10;0.77;;;;;;;;;;4882597;29;20119;-91
2022/03/12 09:10:25;;;;;;;8.52;2.20;;;;;;;;;;4883092;29;20072;-91
2022/03/12 09:12:51;;;;;;;3.95;1.58;;;;;;;;;;4882238;29;20083;-96
2022/03/12 09:15:20;;;;;;;17.13;5.65;;;;;;;;;;4884211;29;20040;-90
2022/03/12 09:17:46;;;;;;;78.75;19.33;;;;;;;;;;4884631;29;20486;-94
2022/03/12 09:20:13;;;;;;;6.75;2.85;;;;;;;;;;4882981;29;20087;-90
2022/03/12 09:22:40;;;;;;;8.52;1.77;;;;;;;;;;4866961;29;20512;-89
2022/03/12 09:25:11;;;;;;;5.22;2.10;;;;;;;;;;4883356;29;20035;-87
2022/03/12 09:27:48;;;;;;;3.88;1.80;;;;;;;;;;4900062;29;20899;-87
2022/03/12 09:30:15;;;;;;;3.75;1.75;;;;;;;;;;4882487;29;20167;-88
2022/03/12 09:32:42;;;;;;;7.85;2.38;;;;;;;;;;4883446;29;20127;-87
2022/03/12 09:35:08;;;;;;;9.05;2.25;;;;;;;;;;4882983;29;20048;-89
2022/03/12 09:37:36;;;;;;;15.90;5.25;;;;;;;;;;4882824;29;20033;-89
2022/03/12 09:40:04;;;;;;;6.25;1.23;;;;;;;;;;4883301;29;20024;-89
2022/03/12 09:42:30;;;;;;;10.07;2.92;;;;;;;;;;4882666;29;20048;-92
2022/03/12 09:44:57;;;;;;;8.85;2.55;;;;;;;;;;4882615;29;20468;-88
2022/03/12 09:47:24;;;;;;;23.00;6.35;;;;;;;;;;4882628;29;20100;-90
2022/03/12 09:49:50;;;;;;;18.30;6.80;;;;;;;;;;4886691;29;20036;-90
2022/03/12 09:52:17;;;;;;;17.80;5.60;;;;;;;;;;4882635;29;20036;-91
2022/03/12 09:54:43;;;;;;;17.17;6.88;;;;;;;;;;4882996;29;20025;-89
2022/03/12 09:57:10;;;;;;;20.00;7.30;;;;;;;;;;4882521;29;20033;-88
2022/03/12 09:59:36;;;;;;;3.70;1.50;;;;;;;;;;4882285;29;20053;-86
2022/03/12 10:02:02;;;;;;;4.22;1.83;;;;;;;;;;4882004;29;20029;-88
2022/03/12 10:04:29;;;;;;;4.20;1.67;;;;;;;;;;4898776;29;20029;-85
2022/03/12 10:06:55;;;;;;;4.03;1.42;;;;;;;;;;4898815;29;20076;-87
2022/03/12 10:09:22;;;;;;;6.13;2.40;;;;;;;;;;4881807;29;20029;-85
2022/03/12 10:11:50;;;;;;;3.60;1.80;;;;;;;;;;4878443;29;20088;-86
2022/03/12 10:14:17;;;;;;;5.07;1.98;;;;;;;;;;4878748;29;20518;-85
2022/03/12 10:16:43;;;;;;;4.40;1.80;;;;;;;;;;4881097;29;20030;-86
2022/03/12 10:19:09;;;;;;;3.63;1.77;;;;;;;;;;4879401;29;20029;-86
2022/03/12 10:21:42;;;;;;;3.95;1.45;;;;;;;;;;4881839;29;20061;-86
2022/03/12 10:24:11;;;;;;;8.75;1.63;;;;;;;;;;4880568;29;20037;-88
2022/03/12 10:26:38;;;;;;;4.22;1.48;;;;;;;;;;4882398;29;20028;-89
2022/03/12 10:29:05;;;;;;;6.13;2.10;;;;;;;;;;4883507;29;20165;-87
2022/03/12 10:31:31;;;;;;;14.43;3.35;;;;;;;;;;4882297;29;20033;-90
2022/03/12 10:34:17;;;;;;;3.30;1.52;;;;;;;;;;4881703;29;20066;-90
2022/03/12 10:36:44;;;;;;;4.43;1.58;;;;;;;;;;4882611;29;20372;-88
2022/03/12 10:39:10;;;;;;;5.22;1.90;;;;;;;;;;4884747;29;20029;-91
2022/03/12 10:41:39;;;;;;;9.10;1.77;;;;;;;;;;4882571;29;20040;-84
2022/03/12 10:44:06;;;;;;;7.18;2.38;;;;;;;;;;4883173;29;20025;-90
2022/03/12 10:46:35;;;;;;;4.95;1.83;;;;;;;;;;4882738;29;20048;-93
2022/03/12 10:49:03;;;;;;;4.65;1.95;;;;;;;;;;4881810;29;20033;-91
2022/03/12 10:51:31;;;;;;;3.08;1.20;;;;;;;;;;4881747;29;20053;-86
2022/03/12 10:54:08;;;;;;;3.63;1.63;;;;;;;;;;4880493;29;20029;-84
2022/03/12 10:56:47;;;;;;;7.22;2.25;;;;;;;;;;4882528;29;20033;-84
2022/03/12 11:07:24;;;;;;;7.57;1.77;;;;;;;;;;5179921;23;20147;-90
2022/03/12 11:09:51;;;;;;;3.88;1.23;;;;;;;;;;4884511;29;20036;-86
2022/03/12 11:12:38;;;;;;;5.10;2.15;;;;;;;;;;4885263;29;20590;-88
2022/03/12 11:15:11;;;;;;;13.27;3.03;;;;;;;;;;4886870;29;20032;-89
2022/03/12 11:17:44;;;;;;;6.47;2.58;;;;;;;;;;4888256;29;20051;-88
2022/03/12 11:20:14;;;;;;;15.43;4.05;;;;;;;;;;4884912;29;20062;-92
2022/03/12 11:22:40;;;;;;;8.60;3.13;;;;;;;;;;4884834;29;20390;-91
2022/03/12 11:25:10;;;;;;;6.25;2.90;;;;;;;;;;4885314;29;20036;-89
2022/03/12 11:27:36;;;;;;;2.83;1.65;;;;;;;;;;4884629;29;20044;-89
2022/03/12 11:30:10;;;;;;;7.97;2.40;;;;;;;;;;4885979;29;20485;-86
2022/03/12 11:32:46;;;;;;;4.60;1.70;;;;;;;;;;4886308;29;20043;-90
2022/03/12 11:35:17;;;;;;;7.15;2.00;;;;;;;;;;4884875;29;20026;-88
2022/03/12 11:37:43;;;;;;;12.98;2.15;;;;;;;;;;4884354;29;20041;-88
2022/03/12 11:40:14;;;;;;;4.43;2.00;;;;;;;;;;4885379;29;20025;-87
2022/03/12 11:42:41;;;;;;;8.98;2.45;;;;;;;;;;4885029;29;20508;-92
2022/03/12 11:45:18;;;;;;;15.15;2.88;;;;;;;;;;4884491;29;20036;-92
2022/03/12 11:47:45;;;;;;;6.53;1.83;;;;;;;;;;4882658;29;20123;-88
2022/03/12 11:50:34;;;;;;;34.00;7.05;;;;;;;;;;4886766;29;20035;-91
2022/03/12 11:53:00;;;;;;;47.17;12.70;;;;;;;;;;4869290;29;20524;-87
2022/03/12 11:55:27;;;;;;;5.60;2.60;;;;;;;;;;4891018;29;20123;-94
2022/03/12 11:57:59;;;;;;;23.48;6.93;;;;;;;;;;4896199;29;20021;-94
2022/03/12 12:02:58;;;;;;;25.00;9.02;;;;;;;;;;4904919;29;20573;-92
2022/03/12 12:05:27;;;;;;;7.68;2.10;;;;;;;;;;4886588;29;20065;-90
2022/03/12 12:07:55;;;;;;;22.05;6.72;;;;;;;;;;4885166;29;20072;-94
2022/03/12 12:10:27;;;;;;;26.52;8.65;;;;;;;;;;4884059;29;20040;-91
2022/03/12 12:12:53;;;;;;;21.05;5.75;;;;;;;;;;4883835;29;20025;-89
2022/03/12 12:15:25;;;;;;;4.50;2.30;;;;;;;;;;4884803;29;20501;-88
2022/03/12 12:18:00;;;;;;;7.70;2.80;;;;;;;;;;4886916;29;20060;-96
2022/03/12 12:20:28;;;;;;;7.87;3.57;;;;;;;;;;4896809;29;20032;-88
2022/03/12 12:22:58;;;;;;;5.70;2.33;;;;;;;;;;4884389;29;20052;-94
2022/03/12 12:25:25;;;;;;;5.13;2.50;;;;;;;;;;4885736;29;20486;-93
2022/03/12 12:33:15;;;;;;;4.68;2.40;;;;;;;;;;4899071;29;20052;-90
2022/03/12 12:35:42;;;;;;;6.93;2.65;;;;;;;;;;4883565;29;20040;-90
2022/03/12 12:38:09;;;;;;;7.05;3.03;;;;;;;;;;4883780;29;20046;-88
2022/03/12 12:40:42;;;;;;;6.05;2.55;;;;;;;;;;4883953;29;20033;-85
2022/03/12 12:43:13;;;;;;;10.07;2.85;;;;;;;;;;4883987;29;20051;-84
2022/03/12 12:48:45;;;;;;;5.03;2.05;;;;;;;;;;4916017;23;20486;-88
2022/03/12 12:51:11;;;;;;;64.78;23.27;;;;;;;;;;4884672;29;20368;-88
2022/03/12 12:53:38;;;;;;;23.63;9.25;;;;;;;;;;4883715;29;20081;-92
2022/03/12 12:56:23;;;;;;;5.38;2.47;;;;;;;;;;4884108;29;20060;-86
2022/03/12 12:58:59;;;;;;;22.50;8.27;;;;;;;;;;4884518;29;20037;-92
2022/03/12 13:01:27;;;;;;;48.05;15.35;;;;;;;;;;4884575;29;20087;-87
2022/03/12 13:03:54;;;;;;;26.58;10.10;;;;;;;;;;4901146;29;20024;-85
2022/03/12 13:06:50;;;;;;;17.73;6.18;;;;;;;;;;4894417;29;20009;-90
2022/03/12 13:09:21;;;;;;;18.40;6.30;;;;;;;;;;4874600;29;20055;-86
2022/03/12 13:11:57;;;;;;;26.75;10.90;;;;;;;;;;4884883;29;20021;-90
2022/03/12 13:14:25;;;;;;;26.50;9.80;;;;;;;;;;4883306;29;20043;-87
2022/03/12 13:17:04;;;;;;;8.07;2.28;;;;;;;;;;4883746;29;20029;-91
2022/03/12 13:19:33;;;;;;;7.57;2.22;;;;;;;;;;4883064;29;20044;-89
2022/03/12 13:22:00;;;;;;;26.33;9.30;;;;;;;;;;4883190;29;20025;-90
2022/03/12 13:24:30;;;;;;;38.97;13.80;;;;;;;;;;4899038;29;20032;-87
2022/03/12 13:27:00;;;;;;;26.02;8.95;;;;;;;;;;4882525;29;20031;-91
2022/03/12 13:29:26;;;;;;;8.23;3.88;;;;;;;;;;4882571;29;20159;-86
2022/03/12 13:31:56;;;;;;;11.50;5.00;;;;;;;;;;4882455;29;20033;-91
2022/03/12 13:34:22;;;;;;;6.70;2.20;;;;;;;;;;4882610;29;20024;-86
2022/03/12 13:36:54;;;;;;;4.43;2.40;;;;;;;;;;4882976;29;20028;-87
2022/03/12 13:39:21;;;;;;;7.75;3.40;;;;;;;;;;4882623;29;20036;-87
2022/03/12 13:41:48;;;;;;;9.63;3.90;;;;;;;;;;4882943;29;20029;-88
2022/03/12 13:44:15;;;;;;;4.90;2.38;;;;;;;;;;4883008;29;20406;-88
2022/03/12 13:46:41;;;;;;;6.28;2.70;;;;;;;;;;4882522;29;20021;-87
2022/03/12 13:49:12;;;;;;;20.42;7.32;;;;;;;;;;4882902;29;20478;-87
2022/03/12 13:51:40;;;;;;;8.55;2.25;;;;;;;;;;4882939;29;20077;-87
2022/03/12 13:54:07;;;;;;;33.15;11.15;;;;;;;;;;4882905;29;20059;-88
2022/03/12 13:56:34;;;;;;;20.80;7.55;;;;;;;;;;4882586;29;20025;-87
2022/03/12 13:59:03;;;;;;;20.85;6.88;;;;;;;;;;4899840;29;20033;-87
2022/03/12 14:01:38;;;;;;;7.93;3.13;;;;;;;;;;4886020;29;20478;-87
2022/03/12 14:04:05;;;;;;;8.38;2.47;;;;;;;;;;4886548;29;20103;-91
2022/03/12 14:06:44;;;;;;;20.30;6.72;;;;;;;;;;4888503;29;20534;-89
2022/03/12 14:09:10;;;;;;;11.77;4.65;;;;;;;;;;4885889;29;20042;-84
2022/03/12 14:11:43;;;;;;;7.45;2.97;;;;;;;;;;4885664;29;20080;-91
2022/03/12 14:14:11;;;;;;;6.65;2.92;;;;;;;;;;4885484;29;20037;-87
2022/03/12 14:16:39;;;;;;;14.25;5.72;;;;;;;;;;4885630;29;20482;-88
2022/03/12 14:19:06;;;;;;;11.70;3.38;;;;;;;;;;4885225;29;20040;-88
2022/03/12 14:21:36;;;;;;;5.22;2.65;;;;;;;;;;4886584;29;20035;-85
2022/03/12 14:24:10;;;;;;;8.10;3.08;;;;;;;;;;4885656;29;20043;-87
2022/03/12 14:26:48;;;;;;;5.10;2.45;;;;;;;;;;4885752;29;20033;-88
2022/03/12 14:29:16;;;;;;;8.02;2.95;;;;;;;;;;4886275;29;20060;-87
2022/03/12 14:31:42;;;;;;;4.75;2.38;;;;;;;;;;4886189;29;20029;-85
2022/03/12 14:34:11;;;;;;;10.18;2.45;;;;;;;;;;4885965;29;20033;-86
2022/03/12 14:36:38;;;;;;;5.07;2.25;;;;;;;;;;4886154;29;20025;-89
2022/03/12 14:39:04;;;;;;;5.80;2.97;;;;;;;;;;4885151;29;20386;-89
2022/03/12 14:41:30;;;;;;;6.57;2.65;;;;;;;;;;4885477;29;20037;-87
2022/03/12 14:43:56;;;;;;;6.25;2.67;;;;;;;;;;4887633;29;20025;-88
2022/03/12 14:46:23;;;;;;;6.45;2.58;;;;;;;;;;4886190;29;20032;-91
2022/03/12 14:48:49;;;;;;;6.57;2.85;;;;;;;;;;4903825;29;20150;-91
2022/03/12 14:51:16;;;;;;;6.05;3.00;;;;;;;;;;4886544;29;20423;-86
2022/03/12 14:53:48;;;;;;;5.75;2.90;;;;;;;;;;4885645;29;20029;-87
2022/03/12 14:56:15;;;;;;;6.18;2.97;;;;;;;;;;4884487;29;20040;-86
2022/03/12 14:58:41;;;;;;;8.05;2.55;;;;;;;;;;4885240;29;20092;-86
2022/03/12 15:01:08;;;;;;;8.23;2.92;;;;;;;;;;4900141;29;20064;-86
2022/03/12 15:03:34;;;;;;;8.02;3.10;;;;;;;;;;4883790;29;20035;-86
2022/03/12 15:06:01;;;;;;;6.65;2.75;;;;;;;;;;4902269;29;20028;-86
2022/03/12 15:08:27;;;;;;;6.05;2.53;;;;;;;;;;4884421;29;20397;-91
2022/03/12 15:11:11;;;;;;;7.57;3.55;;;;;;;;;;4885219;29;20088;-91
2022/03/12 15:13:43;;;;;;;7.63;3.22;;;;;;;;;;4885435;29;20040;-86
2022/03/12 15:16:21;;;;;;;7.72;3.05;;;;;;;;;;4884645;29;20102;-89
2022/03/12 15:18:49;;;;;;;9.40;3.10;;;;;;;;;;4884848;29;20025;-91
2022/03/12 15:21:16;;;;;;;6.75;3.00;;;;;;;;;;4902090;29;20035;-90
2022/03/12 15:23:45;;;;;;;7.88;2.90;;;;;;;;;;4884950;29;20084;-90